Terminal Aerodrome Forecast
Issued by NWS

Home | Current Version | Previous Version | Text Only | Print | Product List | Glossary On
Versions: 1 2 3 4 5 6 7 8 9 10 11 12 13 14 15
000
FTUS46 KMTR 181100
TAFSJC
TAF
KSJC 181123Z 1812/1912 12010KT P6SM SCT035 BKN050
     FM182300 11006KT P6SM BKN050
     FM190300 14005KT P6SM BKN050 OVC100 PROB30 1910/1912 12010KT
      6SM -RA BR OVC030=

USA.gov is the U.S. government's official web portal to all federal, state and local government web resources and services.